createdAt,value
2023-02-02T00:01:30.882Z,98594.53
2023-02-02T00:03:58.853Z,98579.16
2023-02-02T00:06:28.577Z,98593.69
2023-02-02T00:08:58.101Z,98580.25
2023-02-02T00:11:26.115Z,98579.66
2023-02-02T00:13:53.865Z,98592.06
2023-02-02T00:16:27.575Z,98589.13
2023-02-02T00:19:00.535Z,98582.28
2023-02-02T00:21:28.990Z,98587.34
2023-02-02T00:23:56.679Z,98584.66
2023-02-02T00:26:25.235Z,98582.28
2023-02-02T00:28:53.325Z,98575.31
2023-02-02T00:31:20.930Z,98577.59
2023-02-02T00:33:50.181Z,98580.56
2023-02-02T00:36:19.819Z,98583.22
2023-02-02T00:38:48.672Z,98576.00
2023-02-02T00:41:16.586Z,98577.00
2023-02-02T00:43:44.007Z,98585.50
2023-02-02T00:46:18.002Z,98584.81
2023-02-02T00:48:46.102Z,98565.81
2023-02-02T00:51:13.658Z,98565.16
2023-02-02T00:53:40.897Z,98558.75
2023-02-02T00:56:08.461Z,98555.38
2023-02-02T00:58:35.726Z,98564.25
2023-02-02T01:01:03.633Z,98558.38
2023-02-02T01:03:30.962Z,98550.84
2023-02-02T01:05:58.521Z,98552.63
2023-02-02T01:08:25.997Z,98547.47
2023-02-02T01:10:53.718Z,98542.59
2023-02-02T01:13:23.226Z,98543.53
2023-02-02T01:15:59.121Z,98552.78
2023-02-02T01:18:26.736Z,98532.22
2023-02-02T01:21:05.977Z,98549.81
2023-02-02T01:23:34.521Z,98545.47
2023-02-02T01:26:04.327Z,98548.28
2023-02-02T01:28:33.100Z,98543.38
2023-02-02T01:31:09.582Z,98547.19
2023-02-02T01:33:37.566Z,98543.72
2023-02-02T01:36:07.790Z,98556.28
2023-02-02T01:38:35.420Z,98542.44
2023-02-02T01:41:04.702Z,98550.84
2023-02-02T01:43:46.789Z,98550.97
2023-02-02T01:46:35.591Z,98543.41
2023-02-02T01:49:08.112Z,98555.28
2023-02-02T01:51:51.462Z,98555.69
2023-02-02T01:54:46.349Z,98544.03
2023-02-02T01:57:26.220Z,98535.53
2023-02-02T01:59:56.732Z,98551.59
2023-02-02T02:02:27.681Z,98544.06
2023-02-02T02:04:55.545Z,98536.19
2023-02-02T02:07:23.950Z,98545.19
2023-02-02T02:09:51.713Z,98541.28
2023-02-02T02:12:19.270Z,98547.31
2023-02-02T02:15:08.191Z,98548.56
2023-02-02T02:18:21.395Z,98555.78
2023-02-02T02:21:29.211Z,98553.00
2023-02-02T02:24:30.566Z,98568.16
2023-02-02T02:27:30.741Z,98556.59
2023-02-02T02:30:25.111Z,98568.50
2023-02-02T02:33:16.971Z,98559.25
2023-02-02T02:36:18.246Z,98572.41
2023-02-02T02:39:18.750Z,98581.03
2023-02-02T02:41:56.119Z,98565.25
2023-02-02T02:44:25.511Z,98577.81
2023-02-02T02:46:53.591Z,98566.03
2023-02-02T02:49:21.133Z,98578.41
2023-02-02T02:51:49.898Z,98571.38
2023-02-02T02:54:27.239Z,98577.06
2023-02-02T02:57:24.090Z,98575.31
2023-02-02T03:00:24.765Z,98567.81
2023-02-02T03:03:15.934Z,98564.56
2023-02-02T03:06:01.868Z,98568.63
2023-02-02T03:08:36.968Z,98556.94
2023-02-02T03:11:08.140Z,98569.84
2023-02-02T03:13:35.742Z,98579.47
2023-02-02T03:16:03.363Z,98576.56
2023-02-02T03:18:33.224Z,98585.53
2023-02-02T03:21:00.840Z,98569.88
2023-02-02T03:23:28.635Z,98578.28
2023-02-02T03:25:56.329Z,98575.78
2023-02-02T03:28:25.285Z,98581.72
2023-02-02T03:30:54.863Z,98574.50
2023-02-02T03:33:22.912Z,98572.41
2023-02-02T03:35:50.191Z,98575.78
2023-02-02T03:38:17.774Z,98577.47
2023-02-02T03:40:45.100Z,98573.88
2023-02-02T03:43:12.591Z,98572.59
2023-02-02T03:45:40.863Z,98579.63
2023-02-02T03:48:08.452Z,98586.19
2023-02-02T03:50:37.055Z,98583.41
2023-02-02T03:53:05.292Z,98590.69
2023-02-02T03:55:32.564Z,98587.25
2023-02-02T03:58:00.085Z,98582.25
2023-02-02T04:00:27.392Z,98588.31
2023-02-02T04:02:55.172Z,98594.19
2023-02-02T04:05:22.770Z,98603.19
2023-02-02T04:07:50.517Z,98593.06
2023-02-02T04:10:18.469Z,98605.84
2023-02-02T04:12:46.168Z,98601.34
2023-02-02T04:15:13.467Z,98615.75
2023-02-02T04:17:41.122Z,98610.88
2023-02-02T04:20:08.947Z,98617.97
2023-02-02T04:22:36.455Z,98612.81
2023-02-02T04:25:04.069Z,98619.44
2023-02-02T04:27:34.443Z,98616.22
2023-02-02T04:30:01.853Z,98627.41
2023-02-02T04:32:29.426Z,98631.16
2023-02-02T04:34:56.676Z,98609.44
2023-02-02T04:37:24.185Z,98632.06
2023-02-02T04:39:51.375Z,98630.69
2023-02-02T04:42:18.958Z,98634.91
2023-02-02T04:44:46.324Z,98633.47
2023-02-02T04:47:13.970Z,98629.28
2023-02-02T04:49:41.453Z,98638.75
2023-02-02T04:52:11.062Z,98653.84
2023-02-02T04:54:38.264Z,98648.78
2023-02-02T04:57:05.844Z,98641.44
2023-02-02T04:59:33.102Z,98646.41
2023-02-02T05:02:01.774Z,98655.72
2023-02-02T05:04:29.273Z,98666.25
2023-02-02T05:06:56.835Z,98660.47
2023-02-02T05:09:24.157Z,98660.47
2023-02-02T05:11:51.711Z,98662.84
2023-02-02T05:14:20.359Z,98670.28
2023-02-02T05:16:50.033Z,98669.56
2023-02-02T05:19:17.544Z,98668.00
2023-02-02T05:21:45.612Z,98675.56
2023-02-02T05:24:12.883Z,98672.47
2023-02-02T05:26:40.491Z,98664.31
2023-02-02T05:29:09.428Z,98667.53
2023-02-02T05:31:37.148Z,98683.06
2023-02-02T05:34:06.909Z,98683.53
2023-02-02T05:36:34.572Z,98672.34
2023-02-02T05:39:01.792Z,98687.47
2023-02-02T05:41:29.322Z,98692.66
2023-02-02T05:43:59.422Z,98692.53
2023-02-02T05:46:27.090Z,98689.81
2023-02-02T05:48:54.442Z,98708.06
2023-02-02T05:51:24.050Z,98716.47
2023-02-02T05:53:51.281Z,98718.59
2023-02-02T05:56:18.821Z,98722.41
2023-02-02T05:58:48.160Z,98731.53
2023-02-02T06:01:18.213Z,98740.31
2023-02-02T06:03:45.645Z,98738.75
2023-02-02T06:06:14.136Z,98754.88
2023-02-02T06:08:41.389Z,98761.09
2023-02-02T06:11:13.832Z,98759.28
2023-02-02T06:13:41.037Z,98772.78
2023-02-02T06:16:09.576Z,98781.88
2023-02-02T06:18:37.282Z,98796.09
2023-02-02T06:21:06.267Z,98803.34
2023-02-02T06:23:34.630Z,98805.28
2023-02-02T06:26:03.759Z,98822.56
2023-02-02T06:28:31.857Z,98834.28
2023-02-02T06:31:07.532Z,98834.91
2023-02-02T06:33:35.183Z,98842.03
2023-02-02T06:36:05.742Z,98851.09
2023-02-02T06:38:33.845Z,98853.34
2023-02-02T06:41:02.440Z,98847.47
2023-02-02T06:43:30.405Z,98865.03
2023-02-02T06:45:58.806Z,98877.75
2023-02-02T06:48:27.433Z,98872.94
2023-02-02T06:50:58.572Z,98883.06
2023-02-02T06:53:26.758Z,98888.63
2023-02-02T06:55:58.842Z,98896.75
2023-02-02T06:58:26.783Z,98907.84
2023-02-02T07:00:54.717Z,98913.31
2023-02-02T07:03:22.465Z,98905.06
2023-02-02T07:05:50.046Z,98925.94
2023-02-02T07:08:17.376Z,98933.53
2023-02-02T07:11:14.363Z,98937.16
2023-02-02T07:13:32.188Z,98944.63
2023-02-02T07:16:00.564Z,98950.91
2023-02-02T07:18:27.886Z,98955.34
2023-02-02T07:20:58.194Z,98968.25
2023-02-02T07:23:25.571Z,98973.06
2023-02-02T07:26:08.417Z,98982.00
2023-02-02T07:28:36.295Z,98989.94
2023-02-02T07:31:36.989Z,98990.53
2023-02-02T07:34:04.576Z,98999.69
2023-02-02T07:36:32.631Z,99009.84
2023-02-02T07:39:02.402Z,99011.78
2023-02-02T07:41:29.957Z,99014.44
2023-02-02T07:43:57.366Z,99030.00
2023-02-02T07:46:25.364Z,99027.28
2023-02-02T07:48:57.124Z,99031.75
2023-02-02T07:51:26.064Z,99037.03
2023-02-02T07:53:55.601Z,99044.44
2023-02-02T07:56:26.029Z,99053.34
2023-02-02T07:58:55.034Z,99059.41
2023-02-02T08:01:26.241Z,99067.91
2023-02-02T08:03:55.318Z,99078.06
2023-02-02T08:06:26.430Z,99084.66
2023-02-02T08:08:53.940Z,99086.78
2023-02-02T08:11:22.973Z,99082.09
2023-02-02T08:13:52.741Z,99097.91
2023-02-02T08:16:21.359Z,99101.03
2023-02-02T08:18:49.418Z,99117.78
2023-02-02T08:21:17.512Z,99120.47
2023-02-02T08:23:48.795Z,99117.91
2023-02-02T08:26:19.225Z,99119.59
2023-02-02T08:28:49.625Z,99122.84
2023-02-02T08:31:20.588Z,99142.75
2023-02-02T08:33:48.216Z,99148.81
2023-02-02T08:36:21.407Z,99144.16
2023-02-02T08:38:49.422Z,99164.44
2023-02-02T08:41:19.670Z,99173.84
2023-02-02T08:43:47.364Z,99182.31
2023-02-02T08:46:17.073Z,99174.63
2023-02-02T08:48:45.120Z,99181.03
2023-02-02T08:51:15.716Z,99184.25
2023-02-02T08:53:43.425Z,99189.78
2023-02-02T08:56:14.366Z,99198.38
2023-02-02T08:58:46.502Z,99195.38
2023-02-02T09:01:18.100Z,99216.03
2023-02-02T09:03:45.975Z,99208.50
2023-02-02T09:06:18.817Z,99214.63
2023-02-02T09:08:47.109Z,99231.69
2023-02-02T09:11:17.312Z,99235.28
2023-02-02T09:13:47.015Z,99236.47
2023-02-02T09:16:16.935Z,99251.13
2023-02-02T09:18:44.957Z,99252.66
2023-02-02T09:21:15.123Z,99252.25
2023-02-02T09:23:43.933Z,99271.28
2023-02-02T09:26:12.818Z,99276.97
2023-02-02T09:28:41.687Z,99268.41
2023-02-02T09:31:10.040Z,99275.69
2023-02-02T09:33:37.654Z,99271.84
2023-02-02T09:36:09.252Z,99272.53
2023-02-02T09:38:36.922Z,99288.50
2023-02-02T09:41:37.626Z,99291.59
2023-02-02T09:44:34.831Z,99295.50
2023-02-02T09:47:28.233Z,99303.06
2023-02-02T09:50:23.700Z,99311.44
2023-02-02T09:52:53.954Z,99321.25
2023-02-02T09:55:35.021Z,99316.84
2023-02-02T09:58:22.865Z,99334.31
2023-02-02T10:01:16.372Z,99347.38
2023-02-02T10:04:09.193Z,99338.75
2023-02-02T10:06:46.951Z,99339.16
2023-02-02T10:09:39.461Z,99345.44
2023-02-02T10:12:15.815Z,99354.75
2023-02-02T10:14:52.748Z,99372.41
2023-02-02T10:17:59.258Z,99378.84
2023-02-02T10:20:54.339Z,99382.41
2023-02-02T10:23:21.592Z,99391.94
2023-02-02T10:25:56.428Z,99390.50
2023-02-02T10:28:39.723Z,99396.16
2023-02-02T10:31:17.557Z,99381.66
2023-02-02T10:33:55.556Z,99390.81
2023-02-02T10:36:41.685Z,99409.88
2023-02-02T10:39:32.342Z,99398.44
2023-02-02T10:42:22.764Z,99424.03
2023-02-02T10:45:19.054Z,99431.81
2023-02-02T10:47:47.296Z,99428.09
2023-02-02T10:50:14.694Z,99434.13
2023-02-02T10:52:52.255Z,99426.66
2023-02-02T10:55:38.443Z,99435.94
2023-02-02T10:58:19.139Z,99446.19
2023-02-02T11:00:51.803Z,99464.06
2023-02-02T11:03:23.133Z,99445.53
2023-02-02T11:06:09.263Z,99446.13
2023-02-02T11:08:57.115Z,99464.50
2023-02-02T11:11:33.192Z,99467.16
2023-02-02T11:14:09.689Z,99467.81
2023-02-02T11:16:44.452Z,99472.72
2023-02-02T11:19:19.697Z,99477.50
2023-02-02T11:21:50.444Z,99475.91
2023-02-02T11:24:26.567Z,99481.97
2023-02-02T11:27:03.030Z,99490.94
2023-02-02T11:29:40.790Z,99480.28
2023-02-02T11:32:38.056Z,99493.59
2023-02-02T11:35:08.575Z,99500.06
2023-02-02T11:37:37.677Z,99507.41
2023-02-02T11:40:24.578Z,99515.00
2023-02-02T11:42:53.017Z,99513.38
2023-02-02T11:45:46.161Z,99517.00
2023-02-02T11:48:16.540Z,99526.59
2023-02-02T11:50:50.229Z,99534.38
2023-02-02T11:53:33.036Z,99525.13
2023-02-02T11:56:07.010Z,99530.94
2023-02-02T11:58:52.236Z,99542.84
2023-02-02T12:01:40.724Z,99544.00
2023-02-02T12:04:17.374Z,99553.00
2023-02-02T12:06:45.809Z,99553.66
2023-02-02T12:09:15.428Z,99560.94
2023-02-02T12:11:52.011Z,99567.00
2023-02-02T12:14:49.773Z,99570.84
2023-02-02T12:17:27.797Z,99580.03
2023-02-02T12:20:21.923Z,99588.50
2023-02-02T12:23:12.237Z,99599.81
2023-02-02T12:26:02.485Z,99587.16
2023-02-02T12:28:32.770Z,99614.94
2023-02-02T12:31:26.699Z,99600.56
2023-02-02T12:34:11.773Z,99617.63
2023-02-02T12:37:03.416Z,99619.34
2023-02-02T12:39:45.610Z,99619.50
2023-02-02T12:42:40.052Z,99618.41
2023-02-02T12:45:10.471Z,99622.06
2023-02-02T12:48:12.867Z,99636.59
2023-02-02T12:51:01.848Z,99632.34
2023-02-02T12:54:34.236Z,99643.63
2023-02-02T12:57:12.330Z,99653.28
2023-02-02T13:00:16.776Z,99651.78
2023-02-02T13:03:02.550Z,99655.19
2023-02-02T13:05:48.481Z,99653.59
2023-02-02T13:08:42.775Z,99671.38
2023-02-02T13:11:34.026Z,99663.22
2023-02-02T13:14:16.335Z,99660.38
2023-02-02T13:16:48.616Z,99676.53
2023-02-02T13:19:33.016Z,99684.97
2023-02-02T13:22:04.810Z,99682.41
2023-02-02T13:24:37.222Z,99689.75
2023-02-02T13:27:08.118Z,99709.78
2023-02-02T13:29:47.625Z,99710.44
2023-02-02T13:32:22.505Z,99713.31
2023-02-02T13:34:59.038Z,99727.84
2023-02-02T13:37:39.642Z,99734.28
2023-02-02T13:40:39.044Z,99742.47
2023-02-02T13:43:40.034Z,99734.41
2023-02-02T13:46:18.455Z,99758.66
2023-02-02T13:49:01.377Z,99775.84
2023-02-02T13:51:51.204Z,99769.69
2023-02-02T13:54:50.606Z,99768.72
2023-02-02T13:57:40.346Z,99784.41
2023-02-02T14:00:34.896Z,99791.41
2023-02-02T14:03:06.129Z,99790.53
2023-02-02T14:05:41.731Z,99804.94
2023-02-02T14:08:11.962Z,99820.25
2023-02-02T14:10:54.168Z,99820.06
2023-02-02T14:13:44.688Z,99826.63
2023-02-02T14:16:25.101Z,99835.13
2023-02-02T14:18:55.307Z,99846.41
2023-02-02T14:21:32.803Z,99850.31
2023-02-02T14:24:05.563Z,99861.03
2023-02-02T14:26:48.121Z,99867.00
2023-02-02T14:29:36.961Z,99880.38
2023-02-02T14:32:24.343Z,99884.75
2023-02-02T14:34:55.321Z,99889.19
2023-02-02T14:37:28.499Z,99902.22
2023-02-02T14:40:05.434Z,99905.63
2023-02-02T14:43:44.757Z,99919.81
2023-02-02T14:46:15.125Z,99930.59
2023-02-02T14:48:52.878Z,99917.91
2023-02-02T14:51:26.798Z,99936.91
2023-02-02T14:54:01.353Z,99953.84
2023-02-02T14:56:49.813Z,99958.75
2023-02-02T14:59:26.750Z,99946.16
2023-02-02T15:02:02.617Z,99968.47
2023-02-02T15:04:30.464Z,99979.63
2023-02-02T15:07:23.572Z,99977.25
2023-02-02T15:09:56.365Z,99989.19
2023-02-02T15:12:26.986Z,100001.78
2023-02-02T15:15:12.366Z,100007.72
2023-02-02T15:17:44.443Z,100012.22
2023-02-02T15:20:23.640Z,100025.06
2023-02-02T15:23:16.359Z,100029.03
2023-02-02T15:25:48.333Z,100023.84
2023-02-02T15:28:47.100Z,100047.06
2023-02-02T15:31:17.709Z,100035.00
2023-02-02T15:33:49.754Z,100046.50
2023-02-02T15:36:23.733Z,100054.75
2023-02-02T15:38:58.611Z,100060.72
2023-02-02T15:41:34.092Z,100067.13
2023-02-02T15:44:02.310Z,100067.97
2023-02-02T15:46:35.203Z,100088.19
2023-02-02T15:49:34.419Z,100102.44
2023-02-02T15:52:19.704Z,100101.75
2023-02-02T15:54:56.057Z,100103.22
2023-02-02T15:57:29.482Z,100108.25
2023-02-02T15:59:57.691Z,100112.34
2023-02-02T16:02:41.689Z,100135.56
2023-02-02T16:05:31.331Z,100140.69
2023-02-02T16:08:05.688Z,100142.63
2023-02-02T16:10:35.281Z,100150.06
2023-02-02T16:13:03.963Z,100149.00
2023-02-02T16:15:32.966Z,100151.59
2023-02-02T16:18:07.938Z,100148.03
2023-02-02T16:20:38.460Z,100166.13
2023-02-02T16:23:14.838Z,100171.78
2023-02-02T16:25:51.704Z,100184.16
2023-02-02T16:28:24.962Z,100193.47
2023-02-02T16:30:53.174Z,100188.00
2023-02-02T16:33:41.278Z,100189.03
2023-02-02T16:36:25.177Z,100202.78
2023-02-02T16:38:54.918Z,100205.41
2023-02-02T16:41:34.581Z,100210.56
2023-02-02T16:44:31.048Z,100214.47
2023-02-02T16:46:59.928Z,100223.44
2023-02-02T16:49:28.708Z,100218.06
2023-02-02T16:52:08.546Z,100228.97
2023-02-02T16:54:37.218Z,100225.50
2023-02-02T16:57:05.421Z,100232.41
2023-02-02T16:59:40.096Z,100228.50
2023-02-02T17:02:21.188Z,100244.69
2023-02-02T17:04:52.360Z,100241.84
2023-02-02T17:07:21.458Z,100259.03
2023-02-02T17:09:49.148Z,100255.19
2023-02-02T17:12:32.632Z,100267.38
2023-02-02T17:15:05.736Z,100256.66
2023-02-02T17:17:33.360Z,100268.44
2023-02-02T17:20:00.678Z,100271.31
2023-02-02T17:22:28.548Z,100286.16
2023-02-02T17:24:55.888Z,100296.50
2023-02-02T17:27:34.051Z,100295.25
2023-02-02T17:30:04.198Z,100289.41
2023-02-02T17:32:32.087Z,100299.53
2023-02-02T17:34:59.396Z,100302.66
2023-02-02T17:37:26.944Z,100316.31
2023-02-02T17:39:54.399Z,100308.34
2023-02-02T17:42:27.405Z,100311.25
2023-02-02T17:44:54.647Z,100323.50
2023-02-02T17:47:22.209Z,100322.59
2023-02-02T17:49:49.505Z,100328.47
2023-02-02T17:52:17.225Z,100339.53
2023-02-02T17:54:44.519Z,100345.97
2023-02-02T17:57:12.101Z,100345.91
2023-02-02T17:59:39.374Z,100342.69
2023-02-02T18:02:07.293Z,100349.00
2023-02-02T18:04:36.115Z,100367.03
2023-02-02T18:07:03.818Z,100381.94
2023-02-02T18:09:34.176Z,100387.75
2023-02-02T18:12:01.778Z,100391.56
2023-02-02T18:14:29.485Z,100386.72
2023-02-02T18:16:57.158Z,100404.00
2023-02-02T18:19:24.410Z,100402.84
2023-02-02T18:21:52.330Z,100400.13
2023-02-02T18:24:19.564Z,100398.75
2023-02-02T18:26:47.135Z,100418.41
2023-02-02T18:29:14.431Z,100418.75
2023-02-02T18:31:42.509Z,100422.47
2023-02-02T18:34:10.071Z,100414.25
2023-02-02T18:36:37.598Z,100423.53
2023-02-02T18:39:04.827Z,100438.56
2023-02-02T18:41:32.438Z,100424.97
2023-02-02T18:43:59.757Z,100423.63
2023-02-02T18:46:27.360Z,100435.28
2023-02-02T18:48:55.567Z,100434.72
2023-02-02T18:51:23.142Z,100447.50
2023-02-02T18:53:50.448Z,100440.41
2023-02-02T18:56:18.105Z,100435.44
2023-02-02T18:58:45.369Z,100454.94
2023-02-02T19:01:15.928Z,100453.44
2023-02-02T19:03:47.632Z,100449.16
2023-02-02T19:06:33.512Z,100463.59
2023-02-02T19:09:00.757Z,100469.16
2023-02-02T19:11:43.994Z,100470.59
2023-02-02T19:14:19.719Z,100462.34
2023-02-02T19:16:48.547Z,100464.84
2023-02-02T19:19:30.342Z,100460.56
2023-02-02T19:21:58.614Z,100468.72
2023-02-02T19:24:28.097Z,100465.44
2023-02-02T19:26:56.039Z,100473.44
2023-02-02T19:29:25.350Z,100472.72
2023-02-02T19:32:04.874Z,100479.66
2023-02-02T19:34:33.689Z,100473.56
2023-02-02T19:37:22.323Z,100483.50
2023-02-02T19:39:49.780Z,100478.22
2023-02-02T19:42:17.516Z,100474.00
2023-02-02T19:44:45.023Z,100468.78
2023-02-02T19:47:26.397Z,100483.59
2023-02-02T19:49:53.775Z,100480.28
2023-02-02T19:52:25.720Z,100497.28
2023-02-02T19:54:53.930Z,100492.00
2023-02-02T19:57:36.740Z,100497.94
2023-02-02T20:00:36.707Z,100490.44
2023-02-02T20:03:07.587Z,100498.72
2023-02-02T20:05:38.524Z,100505.16
2023-02-02T20:08:09.192Z,100493.72
2023-02-02T20:10:39.455Z,100507.94
2023-02-02T20:13:25.162Z,100510.16
2023-02-02T20:16:03.383Z,100516.78
2023-02-02T20:18:45.347Z,100511.16
2023-02-02T20:21:42.380Z,100517.22
2023-02-02T20:24:31.602Z,100528.84
2023-02-02T20:27:04.944Z,100518.06
2023-02-02T20:29:42.206Z,100518.72
2023-02-02T20:32:30.257Z,100533.09
2023-02-02T20:34:59.175Z,100532.19
2023-02-02T20:37:29.974Z,100532.06
2023-02-02T20:40:01.354Z,100533.94
2023-02-02T20:42:29.353Z,100530.50
2023-02-02T20:44:58.340Z,100529.81
2023-02-02T20:47:25.787Z,100532.00
2023-02-02T20:49:53.390Z,100524.16
2023-02-02T20:52:23.610Z,100518.72
2023-02-02T20:54:52.472Z,100527.22
2023-02-02T20:57:19.885Z,100525.03
2023-02-02T20:59:47.485Z,100550.59
2023-02-02T21:02:19.518Z,100554.69
2023-02-02T21:04:48.381Z,100571.97
2023-02-02T21:07:17.877Z,100567.31
2023-02-02T21:09:46.963Z,100568.72
2023-02-02T21:12:14.469Z,100567.75
2023-02-02T21:14:42.250Z,100561.91
2023-02-02T21:17:15.301Z,100560.03
2023-02-02T21:19:43.925Z,100569.75
2023-02-02T21:22:12.323Z,100582.75
2023-02-02T21:24:40.124Z,100575.47
2023-02-02T21:27:07.733Z,100594.31
2023-02-02T21:29:35.454Z,100588.28
2023-02-02T21:32:03.561Z,100601.66
2023-02-02T21:34:31.881Z,100610.03
2023-02-02T21:36:59.756Z,100619.16
2023-02-02T21:39:34.837Z,100622.53
2023-02-02T21:42:07.677Z,100599.34
2023-02-02T21:44:37.499Z,100595.47
2023-02-02T21:47:24.193Z,100595.44
2023-02-02T21:49:52.622Z,100586.78
2023-02-02T21:52:20.443Z,100572.53
2023-02-02T21:54:49.278Z,100567.00
2023-02-02T21:57:19.476Z,100561.44
2023-02-02T21:59:54.339Z,100555.44
2023-02-02T22:02:44.665Z,100572.50
2023-02-02T22:05:24.369Z,100560.47
2023-02-02T22:07:56.138Z,100562.56
2023-02-02T22:10:32.619Z,100583.06
2023-02-02T22:13:00.530Z,100581.91
2023-02-02T22:15:32.323Z,100586.91
2023-02-02T22:17:59.826Z,100579.44
2023-02-02T22:20:37.107Z,100588.16
2023-02-02T22:23:04.507Z,100588.28
2023-02-02T22:25:36.748Z,100581.44
2023-02-02T22:28:13.409Z,100587.41
2023-02-02T22:30:43.243Z,100578.97
2023-02-02T22:33:12.425Z,100581.13
2023-02-02T22:35:41.454Z,100578.53
2023-02-02T22:38:09.411Z,100574.47
2023-02-02T22:40:38.065Z,100585.09
2023-02-02T22:43:06.275Z,100583.84
2023-02-02T22:45:34.907Z,100594.16
2023-02-02T22:48:02.350Z,100603.78
2023-02-02T22:50:31.385Z,100592.66
2023-02-02T22:52:59.026Z,100597.38
2023-02-02T22:55:27.022Z,100602.84
2023-02-02T22:57:54.453Z,100601.25
2023-02-02T23:00:27.691Z,100603.88
2023-02-02T23:02:56.151Z,100600.72
2023-02-02T23:05:25.468Z,100599.28
2023-02-02T23:07:53.885Z,100615.03
2023-02-02T23:10:26.119Z,100626.84
2023-02-02T23:12:55.873Z,100613.69
2023-02-02T23:15:23.399Z,100623.69
2023-02-02T23:17:50.756Z,100601.50
2023-02-02T23:20:18.943Z,100604.50
2023-02-02T23:22:46.623Z,100623.03
2023-02-02T23:25:15.235Z,100601.75
2023-02-02T23:27:42.802Z,100620.69
2023-02-02T23:30:12.235Z,100619.53
2023-02-02T23:32:39.644Z,100618.13
2023-02-02T23:35:10.448Z,100615.28
2023-02-02T23:37:38.392Z,100613.25
2023-02-02T23:40:06.743Z,100611.94
2023-02-02T23:42:34.404Z,100606.63
2023-02-02T23:45:02.208Z,100595.56
2023-02-02T23:47:29.570Z,100599.50
2023-02-02T23:49:57.249Z,100593.72
2023-02-02T23:52:24.631Z,100610.91
2023-02-02T23:54:52.960Z,100614.59
2023-02-02T23:57:20.882Z,100609.22
2023-02-02T23:59:48.439Z,100609.06
